Time;durP1;ratioP1;P1;durP2;ratioP2;P2;SDS_P1;SDS_P2;PMS_P1;PMS_P2;Temp;Humidity;BMP_temperature;BMP_pressure;BME280_temperature;BME280_humidity;BME280_pressure;Samples;Min_cycle;Max_cycle;Signal;HPM_P1;HPM_P2
2023/07/25 00:02:22;;;;;;;1.92;1.33;;;;;;;19.94;57.87;96191.25;4940390;28;20571;-78
2023/07/25 00:04:47;;;;;;;1.55;1.38;;;;;;;19.91;57.97;96204.34;4926751;28;20195;-79
2023/07/25 00:07:13;;;;;;;2.10;1.30;;;;;;;19.84;58.26;96202.22;4927737;28;20579;-78
2023/07/25 00:09:38;;;;;;;2.90;1.60;;;;;;;19.75;58.14;96204.22;4925146;28;20333;-78
2023/07/25 00:12:04;;;;;;;1.40;1.13;;;;;;;19.74;57.99;96208.72;4925519;28;20156;-79
2023/07/25 00:14:29;;;;;;;2.28;1.42;;;;;;;19.72;58.46;96204.81;4922869;28;20196;-79
2023/07/25 00:16:54;;;;;;;1.50;1.15;;;;;;;19.72;58.92;96204.81;4909477;28;20234;-79
2023/07/25 00:19:19;;;;;;;1.40;1.30;;;;;;;19.68;58.50;96194.16;4925067;28;20792;-78
2023/07/25 00:21:45;;;;;;;1.40;1.30;;;;;;;19.67;57.75;96197.13;4938324;28;20329;-78
2023/07/25 00:24:10;;;;;;;1.55;1.40;;;;;;;19.64;57.77;96193.28;4926716;28;20510;-79
2023/07/25 00:26:36;;;;;;;1.50;1.15;;;;;;;19.63;58.21;96187.19;4926081;28;20301;-79
2023/07/25 00:29:01;;;;;;;2.10;1.15;;;;;;;19.65;58.15;96198.22;4938045;28;20622;-78
2023/07/25 00:31:26;;;;;;;1.48;1.25;;;;;;;19.60;58.25;96197.66;4942772;28;20559;-78
2023/07/25 00:33:52;;;;;;;1.48;1.38;;;;;;;19.57;58.50;96199.09;4923882;28;20765;-79
2023/07/25 00:36:17;;;;;;;1.52;1.35;;;;;;;19.55;58.61;96195.22;4921363;28;20661;-78
2023/07/25 00:38:42;;;;;;;1.90;1.40;;;;;;;19.60;58.37;96193.16;4938479;28;20208;-79
2023/07/25 00:41:08;;;;;;;1.85;1.55;;;;;;;19.58;58.25;96197.19;4937320;28;20199;-78
2023/07/25 00:43:33;;;;;;;1.58;1.40;;;;;;;19.46;59.29;96193.41;4935082;28;20204;-78
2023/07/25 00:45:59;;;;;;;3.40;1.50;;;;;;;19.46;58.51;96198.69;4924762;28;20636;-78
2023/07/25 00:48:24;;;;;;;2.47;1.40;;;;;;;19.36;59.39;96198.34;4924413;28;20338;-78
2023/07/25 00:50:50;;;;;;;2.17;1.95;;;;;;;19.23;60.35;96193.03;4909128;28;20152;-78
2023/07/25 00:53:16;;;;;;;1.75;1.33;;;;;;;19.18;60.64;96193.22;4908189;28;20626;-79
2023/07/25 00:55:42;;;;;;;2.20;1.67;;;;;;;19.17;60.30;96194.31;4907042;28;20199;-79
2023/07/25 00:58:08;;;;;;;2.78;1.50;;;;;;;19.09;60.83;96193.31;4923703;28;20249;-78
2023/07/25 01:00:33;;;;;;;2.05;1.40;;;;;;;19.04;60.53;96187.47;4919964;28;20427;-78
2023/07/25 01:02:58;;;;;;;2.47;1.52;;;;;;;19.01;61.10;96182.81;4935040;28;20290;-78
2023/07/25 01:05:28;;;;;;;1.60;1.50;;;;;;;19.00;61.07;96182.03;4922757;28;20118;-79
2023/07/25 01:07:55;;;;;;;2.70;1.65;;;;;;;18.98;60.88;96165.75;4927298;28;20322;-79
2023/07/25 01:10:20;;;;;;;1.90;1.63;;;;;;;18.95;60.78;96170.91;4906724;28;20634;-79
2023/07/25 01:12:46;;;;;;;2.00;1.80;;;;;;;18.92;60.80;96174.97;4933257;28;20165;-79
2023/07/25 01:15:11;;;;;;;2.03;1.45;;;;;;;18.92;60.25;96187.38;4907067;28;20184;-79
2023/07/25 01:17:36;;;;;;;2.85;1.83;;;;;;;18.95;60.21;96192.03;4923928;28;20173;-79
2023/07/25 01:20:03;;;;;;;2.08;1.55;;;;;;;18.88;61.33;96190.69;4923490;28;20208;-78
2023/07/25 01:22:31;;;;;;;2.00;1.48;;;;;;;18.84;61.29;96181.09;4925021;28;20181;-78
2023/07/25 01:24:56;;;;;;;2.33;2.13;;;;;;;18.79;62.17;96179.38;4905745;28;20650;-79
2023/07/25 01:27:22;;;;;;;1.95;1.40;;;;;;;18.72;62.32;96174.63;4923921;28;20360;-78
2023/07/25 01:29:47;;;;;;;1.52;1.40;;;;;;;18.75;61.91;96180.34;4924337;28;20284;-78
2023/07/25 01:32:13;;;;;;;2.42;1.52;;;;;;;18.76;62.27;96172.09;4937136;28;20848;-78
2023/07/25 01:34:38;;;;;;;2.45;1.40;;;;;;;18.79;62.24;96176.75;4923988;28;20371;-79
2023/07/25 01:37:05;;;;;;;2.58;1.50;;;;;;;18.81;62.08;96164.00;4935759;28;20246;-78
2023/07/25 01:39:31;;;;;;;2.53;2.33;;;;;;;18.72;62.30;96165.94;4935741;28;20211;-78
2023/07/25 01:41:58;;;;;;;1.63;1.52;;;;;;;18.77;62.40;96168.38;4936780;28;20223;-79
2023/07/25 01:44:26;;;;;;;2.20;1.80;;;;;;;18.89;61.98;96180.91;4932383;28;20157;-78
2023/07/25 01:46:54;;;;;;;1.70;1.50;;;;;;;18.92;62.46;96176.84;4905282;28;20428;-78
2023/07/25 01:49:20;;;;;;;1.70;1.50;;;;;;;18.92;62.74;96166.28;4935566;28;20182;-78
2023/07/25 01:51:48;;;;;;;1.90;1.52;;;;;;;18.94;62.25;96161.47;4936634;28;20242;-79
2023/07/25 01:54:16;;;;;;;1.60;1.45;;;;;;;19.05;62.12;96163.38;4936079;28;20258;-79
2023/07/25 01:56:42;;;;;;;2.25;1.45;;;;;;;19.07;62.46;96161.19;4936436;28;20230;-78
2023/07/25 01:59:07;;;;;;;1.70;1.60;;;;;;;19.08;61.85;96160.09;4923479;28;20179;-78
2023/07/25 02:01:32;;;;;;;2.63;1.70;;;;;;;19.19;61.38;96171.03;4923521;28;20458;-79
2023/07/25 02:03:58;;;;;;;1.83;1.60;;;;;;;19.21;61.08;96178.59;4922975;28;20280;-79
2023/07/25 02:06:23;;;;;;;1.83;1.73;;;;;;;19.16;60.98;96161.13;4932979;28;20207;-79
2023/07/25 02:08:49;;;;;;;2.03;1.83;;;;;;;19.18;61.03;96164.19;4921530;28;20148;-78
2023/07/25 02:11:14;;;;;;;2.20;2.00;;;;;;;19.20;61.27;96155.97;4922826;28;20199;-78
2023/07/25 02:13:40;;;;;;;1.88;1.70;;;;;;;19.21;61.21;96155.63;4931013;28;20211;-79
2023/07/25 02:16:05;;;;;;;1.95;1.35;;;;;;;19.19;61.40;96149.94;4902705;28;20218;-79
2023/07/25 02:18:30;;;;;;;2.75;1.50;;;;;;;19.20;61.29;96153.31;4933206;28;20278;-78
2023/07/25 02:20:56;;;;;;;1.98;1.60;;;;;;;19.21;61.72;96152.22;4907195;28;20269;-78
2023/07/25 02:23:21;;;;;;;2.35;1.60;;;;;;;19.23;61.37;96142.13;4920908;28;20258;-78
2023/07/25 02:25:47;;;;;;;3.05;1.88;;;;;;;19.20;61.34;96137.50;4922750;28;20284;-79
2023/07/25 02:28:13;;;;;;;1.83;1.65;;;;;;;19.22;61.99;96151.88;4922984;28;20188;-79
2023/07/25 02:30:38;;;;;;;2.00;1.60;;;;;;;19.24;61.39;96144.44;4906358;28;20255;-79
2023/07/25 02:33:04;;;;;;;2.45;1.85;;;;;;;19.24;61.80;96149.72;4907733;28;20786;-79
2023/07/25 02:35:29;;;;;;;2.83;1.60;;;;;;;19.32;61.81;96157.88;4925184;28;20701;-78
2023/07/25 02:37:55;;;;;;;1.90;1.70;;;;;;;19.33;62.40;96147.00;4924678;28;20342;-79
2023/07/25 02:40:20;;;;;;;2.55;1.83;;;;;;;19.31;62.22;96146.53;4926688;28;20212;-79
2023/07/25 02:42:46;;;;;;;2.78;1.63;;;;;;;19.34;61.87;96140.59;4926038;28;20287;-79
2023/07/25 02:45:11;;;;;;;2.45;1.58;;;;;;;19.34;61.99;96131.91;4927564;28;20246;-79
2023/07/25 02:47:36;;;;;;;2.50;2.10;;;;;;;19.40;62.26;96135.91;4910124;28;20464;-79
2023/07/25 02:50:02;;;;;;;1.60;1.50;;;;;;;19.37;62.39;96131.28;4923836;28;20199;-78
2023/07/25 02:52:27;;;;;;;2.20;1.92;;;;;;;19.38;62.59;96127.50;4924303;28;20194;-79
2023/07/25 02:54:53;;;;;;;2.53;1.50;;;;;;;19.38;62.36;96123.03;4926804;28;20109;-79
2023/07/25 02:57:18;;;;;;;2.42;1.40;;;;;;;19.37;62.51;96108.28;4924686;28;20228;-79
2023/07/25 02:59:44;;;;;;;1.55;1.30;;;;;;;19.37;62.76;96118.06;4925692;28;20721;-79
2023/07/25 03:02:10;;;;;;;1.83;1.65;;;;;;;19.32;62.54;96107.72;4937325;28;20261;-79
2023/07/25 03:04:35;;;;;;;2.60;1.70;;;;;;;19.24;62.78;96107.50;4924687;28;20181;-78
2023/07/25 03:07:01;;;;;;;2.58;1.63;;;;;;;19.20;62.38;96101.31;4941099;28;20297;-79
2023/07/25 03:09:26;;;;;;;2.58;1.80;;;;;;;19.16;62.51;96091.72;4935925;28;20158;-78
2023/07/25 03:11:54;;;;;;;1.80;1.70;;;;;;;19.18;62.33;96102.75;4926199;28;20306;-78
2023/07/25 03:14:20;;;;;;;2.20;1.60;;;;;;;19.14;62.90;96099.19;4910008;28;20289;-78
2023/07/25 03:16:45;;;;;;;2.97;1.90;;;;;;;19.16;63.14;96103.06;4935006;28;20309;-79
2023/07/25 03:19:10;;;;;;;1.92;1.70;;;;;;;19.12;63.35;96091.59;4931896;28;20566;-78
2023/07/25 03:21:36;;;;;;;3.90;1.90;;;;;;;19.23;62.44;96102.53;4934173;28;20308;-79
2023/07/25 03:24:01;;;;;;;1.88;1.67;;;;;;;19.21;62.52;96094.94;4925766;28;20277;-78
2023/07/25 03:26:26;;;;;;;2.03;1.67;;;;;;;19.26;63.03;96092.09;4938302;28;20200;-78
2023/07/25 03:28:52;;;;;;;2.28;2.03;;;;;;;19.25;63.16;96087.91;4910118;28;20220;-78
2023/07/25 03:31:17;;;;;;;1.95;1.30;;;;;;;19.28;62.65;96075.94;4907081;28;20385;-79
2023/07/25 03:33:43;;;;;;;2.55;1.55;;;;;;;19.32;62.90;96074.19;4908645;28;21045;-78
2023/07/25 03:36:08;;;;;;;2.80;1.73;;;;;;;19.31;63.00;96079.78;4937531;28;20287;-79
2023/07/25 03:38:33;;;;;;;2.13;1.50;;;;;;;19.25;63.18;96068.69;4922842;28;20701;-78
2023/07/25 03:40:59;;;;;;;1.60;1.42;;;;;;;19.24;63.03;96075.03;4924267;28;20574;-79
2023/07/25 03:43:24;;;;;;;2.03;1.83;;;;;;;19.25;62.95;96068.69;4906627;28;20227;-78
2023/07/25 03:45:54;;;;;;;1.77;1.45;;;;;;;19.12;62.96;96059.94;4933091;28;20219;-79
2023/07/25 03:48:19;;;;;;;2.50;1.52;;;;;;;19.09;62.71;96052.72;4923789;28;20716;-78
2023/07/25 03:50:45;;;;;;;2.72;2.03;;;;;;;19.06;63.22;96056.00;4927039;28;20368;-79
2023/07/25 03:53:10;;;;;;;2.15;1.92;;;;;;;18.99;64.13;96063.69;4925723;28;20694;-78
2023/07/25 03:55:36;;;;;;;1.88;1.77;;;;;;;19.04;63.51;96058.19;4924022;28;20203;-79
2023/07/25 03:58:01;;;;;;;1.70;1.60;;;;;;;19.08;63.24;96061.72;4923518;28;20408;-78
2023/07/25 04:00:26;;;;;;;2.20;1.65;;;;;;;19.09;63.65;96065.91;4925626;28;20641;-79
2023/07/25 04:02:52;;;;;;;3.13;1.90;;;;;;;19.06;63.75;96061.28;4925739;28;20290;-79
2023/07/25 04:05:17;;;;;;;3.30;1.67;;;;;;;19.09;64.29;96063.25;4923453;28;20379;-79
2023/07/25 04:07:46;;;;;;;2.15;1.75;;;;;;;19.15;64.19;96067.22;4909317;28;20342;-79
2023/07/25 04:10:11;;;;;;;2.33;1.92;;;;;;;19.17;64.31;96067.66;4924434;28;20197;-79
2023/07/25 04:12:36;;;;;;;2.90;1.83;;;;;;;19.21;64.30;96060.66;4923645;28;20795;-79
2023/07/25 04:15:02;;;;;;;2.30;1.75;;;;;;;19.15;64.37;96043.47;4923548;28;20354;-79
2023/07/25 04:17:27;;;;;;;3.72;2.05;;;;;;;19.25;64.08;96055.47;4940553;28;20331;-79
2023/07/25 04:19:53;;;;;;;2.33;1.85;;;;;;;19.26;64.43;96055.16;4923600;28;20262;-79
2023/07/25 04:22:18;;;;;;;2.38;1.73;;;;;;;19.33;63.95;96059.09;4923106;28;20275;-79
2023/07/25 04:24:44;;;;;;;1.85;1.58;;;;;;;19.33;64.43;96053.81;4937993;28;20341;-78
2023/07/25 04:27:09;;;;;;;2.60;1.60;;;;;;;19.34;64.02;96048.22;4921658;28;20128;-79
2023/07/25 04:29:34;;;;;;;2.10;1.90;;;;;;;19.33;64.31;96041.41;4925848;28;20192;-79
2023/07/25 04:32:00;;;;;;;1.50;1.35;;;;;;;19.37;64.08;96046.81;4908066;28;20141;-79
2023/07/25 04:34:28;;;;;;;2.00;1.70;;;;;;;19.32;64.28;96042.50;4907068;28;20199;-79
2023/07/25 04:36:54;;;;;;;4.00;1.83;;;;;;;19.33;65.05;96041.41;4901832;28;20290;-79
2023/07/25 04:39:19;;;;;;;1.80;1.67;;;;;;;19.35;64.34;96043.72;4908636;28;20633;-78
2023/07/25 04:41:44;;;;;;;2.42;1.83;;;;;;;19.31;64.89;96040.19;4911367;28;20675;-79
2023/07/25 04:44:10;;;;;;;2.33;1.88;;;;;;;19.27;65.31;96042.72;4924537;28;20281;-79
2023/07/25 04:46:36;;;;;;;2.95;1.90;;;;;;;19.23;65.86;96042.59;4923398;28;20611;-79
2023/07/25 04:49:01;;;;;;;2.20;1.80;;;;;;;19.30;65.77;96049.22;4932187;28;20199;-79
2023/07/25 04:51:27;;;;;;;2.00;1.80;;;;;;;19.32;66.13;96049.66;4913081;28;20206;-79
2023/07/25 04:53:52;;;;;;;2.88;1.90;;;;;;;19.28;65.62;96058.22;4908134;28;20196;-79
2023/07/25 04:56:17;;;;;;;2.65;1.48;;;;;;;19.24;65.58;96048.66;4907095;28;20243;-79
2023/07/25 04:58:43;;;;;;;2.13;1.50;;;;;;;19.29;65.84;96056.34;4931456;28;20266;-79
2023/07/25 05:01:09;;;;;;;2.55;1.90;;;;;;;19.33;65.83;96061.75;4904301;28;20171;-79
2023/07/25 05:03:35;;;;;;;3.22;1.50;;;;;;;19.43;65.29;96066.59;4923610;28;20303;-79
2023/07/25 05:06:00;;;;;;;2.00;1.80;;;;;;;19.44;65.57;96076.81;4906127;28;20377;-79
2023/07/25 05:08:25;;;;;;;2.08;1.77;;;;;;;19.39;65.53;96069.13;4920084;28;20278;-79
2023/07/25 05:10:53;;;;;;;2.25;1.80;;;;;;;19.40;65.82;96075.19;4934780;28;20603;-80
2023/07/25 05:13:19;;;;;;;3.45;2.17;;;;;;;19.44;65.65;96086.63;4915726;28;20190;-79
2023/07/25 05:15:44;;;;;;;3.30;1.88;;;;;;;19.45;66.06;96088.19;4906292;28;20585;-79
2023/07/25 05:18:09;;;;;;;2.80;1.85;;;;;;;19.45;66.10;96077.63;4919169;28;20294;-79
2023/07/25 05:20:35;;;;;;;3.03;1.92;;;;;;;19.41;65.89;96079.34;4924163;28;20613;-79
2023/07/25 05:23:00;;;;;;;3.50;1.90;;;;;;;19.40;65.99;96072.56;4922009;28;20644;-79
2023/07/25 05:25:26;;;;;;;1.65;1.55;;;;;;;19.51;65.57;96072.88;4908687;28;20234;-79
2023/07/25 05:27:51;;;;;;;1.67;1.48;;;;;;;19.60;65.48;96084.91;4923902;28;20749;-79
2023/07/25 05:30:17;;;;;;;1.58;1.40;;;;;;;19.57;65.51;96077.63;4924078;28;20310;-79
2023/07/25 05:32:42;;;;;;;2.65;1.75;;;;;;;19.63;65.26;96076.28;4903623;28;20107;-79
2023/07/25 05:35:08;;;;;;;2.13;1.85;;;;;;;19.73;65.51;96087.53;4935150;28;20222;-79
2023/07/25 05:37:35;;;;;;;3.03;1.60;;;;;;;19.79;65.11;96080.94;4893905;28;20263;-79
2023/07/25 05:40:01;;;;;;;2.25;1.90;;;;;;;19.68;65.49;96077.19;4931841;28;21364;-79
2023/07/25 05:42:26;;;;;;;2.05;1.88;;;;;;;19.67;65.25;96065.06;4921151;28;20283;-79
2023/07/25 05:44:52;;;;;;;2.63;1.77;;;;;;;19.77;65.00;96069.94;4910636;28;20266;-79
2023/07/25 05:47:17;;;;;;;2.20;1.90;;;;;;;19.78;65.21;96074.13;4916524;28;20235;-79
2023/07/25 05:49:43;;;;;;;2.63;1.55;;;;;;;19.86;65.09;96075.09;4918740;28;20174;-79
2023/07/25 05:52:08;;;;;;;2.15;1.85;;;;;;;19.75;65.36;96065.00;4918597;28;20172;-79
2023/07/25 05:54:34;;;;;;;1.92;1.77;;;;;;;19.71;65.58;96053.53;4906424;28;20798;-79
2023/07/25 05:57:01;;;;;;;2.55;1.67;;;;;;;19.85;64.40;96058.50;4925636;28;20421;-79
2023/07/25 05:59:26;;;;;;;3.28;1.60;;;;;;;19.79;65.29;96054.53;4942260;28;20177;-79
2023/07/25 06:01:52;;;;;;;2.00;1.50;;;;;;;19.87;65.33;96052.88;4909977;28;20244;-79
2023/07/25 06:04:17;;;;;;;1.70;1.55;;;;;;;19.97;64.75;96050.56;4922034;28;20342;-79
2023/07/25 06:06:43;;;;;;;2.67;1.80;;;;;;;19.95;65.03;96036.91;4930279;28;20238;-78
2023/07/25 06:09:08;;;;;;;2.38;1.65;;;;;;;20.07;65.39;96035.38;4935417;28;20612;-79
2023/07/25 06:11:34;;;;;;;3.38;1.70;;;;;;;20.25;64.29;96027.94;4948133;28;20695;-79
2023/07/25 06:13:59;;;;;;;1.83;1.50;;;;;;;20.28;63.99;96035.94;4929693;28;20650;-79
2023/07/25 06:16:24;;;;;;;2.03;1.73;;;;;;;20.24;64.46;96024.53;4927389;28;20279;-79
2023/07/25 06:18:50;;;;;;;1.60;1.50;;;;;;;20.24;63.41;96043.03;4928439;28;20337;-79
2023/07/25 06:21:21;;;;;;;1.77;1.45;;;;;;;20.24;63.79;96043.03;4943261;28;20661;-78
2023/07/25 06:23:47;;;;;;;1.85;1.35;;;;;;;20.33;64.53;96041.00;4924128;28;20203;-79
2023/07/25 06:26:12;;;;;;;1.85;1.60;;;;;;;20.34;63.83;96034.63;4925868;28;20618;-79
2023/07/25 06:28:38;;;;;;;2.35;1.50;;;;;;;20.36;64.64;96042.22;4923918;28;20717;-79
2023/07/25 06:31:03;;;;;;;1.40;1.30;;;;;;;20.35;64.35;96046.72;4935580;28;20222;-78
2023/07/25 06:33:28;;;;;;;2.25;1.63;;;;;;;20.21;65.32;96030.47;4942970;28;20245;-79
2023/07/25 06:35:54;;;;;;;2.00;1.75;;;;;;;20.32;64.62;96031.56;4912072;28;20195;-79
2023/07/25 06:38:19;;;;;;;2.53;1.60;;;;;;;20.00;65.52;96031.41;4925953;28;20193;-79
2023/07/25 06:40:48;;;;;;;1.90;1.70;;;;;;;20.39;63.90;96037.03;4922092;28;20243;-78
2023/07/25 06:43:13;;;;;;;3.45;2.20;;;;;;;20.23;64.78;96036.19;4909772;28;20196;-79
2023/07/25 06:45:39;;;;;;;2.55;2.03;;;;;;;20.43;64.19;96023.91;4927215;28;20323;-79
2023/07/25 06:48:04;;;;;;;2.08;1.75;;;;;;;20.57;64.45;96015.59;4940569;28;20313;-80
2023/07/25 06:50:32;;;;;;;2.72;1.70;;;;;;;20.76;64.12;96015.72;4940220;28;20207;-79
2023/07/25 06:52:58;;;;;;;2.03;1.80;;;;;;;21.02;63.11;96006.56;4927446;28;20274;-80
2023/07/25 06:55:23;;;;;;;2.00;1.83;;;;;;;21.39;61.95;96019.53;4925559;28;20090;-79
2023/07/25 06:57:48;;;;;;;2.28;1.73;;;;;;;21.49;61.00;96020.94;4938607;28;20184;-79
2023/07/25 07:00:14;;;;;;;2.15;1.85;;;;;;;21.46;61.01;96022.38;4906875;28;20247;-79
2023/07/25 07:02:42;;;;;;;2.70;1.83;;;;;;;21.08;61.70;96007.84;4936956;28;21223;-79
2023/07/25 07:05:08;;;;;;;2.35;1.77;;;;;;;21.01;62.60;96007.69;4909198;28;20669;-79
2023/07/25 07:07:33;;;;;;;1.58;1.40;;;;;;;21.03;61.83;96005.44;4909907;28;20233;-80
2023/07/25 07:09:59;;;;;;;2.13;1.63;;;;;;;20.89;62.94;96005.09;4926067;28;20540;-79
2023/07/25 07:12:24;;;;;;;2.65;1.83;;;;;;;20.92;62.41;96007.84;4932817;28;20120;-79
2023/07/25 07:14:50;;;;;;;1.98;1.80;;;;;;;20.94;62.36;96002.22;4925402;28;20191;-79
2023/07/25 07:17:16;;;;;;;2.15;1.83;;;;;;;20.88;62.66;95999.03;4907564;28;20629;-79
2023/07/25 07:19:42;;;;;;;3.33;1.85;;;;;;;20.90;62.67;95994.16;4934630;28;20732;-79
2023/07/25 07:22:07;;;;;;;3.00;2.10;;;;;;;20.88;62.26;95992.97;4925303;28;20234;-79
2023/07/25 07:24:33;;;;;;;2.22;2.03;;;;;;;20.84;63.34;95986.84;4924605;28;20169;-79
2023/07/25 07:26:58;;;;;;;2.47;2.20;;;;;;;20.60;64.58;95999.06;4910964;28;20203;-80
2023/07/25 07:29:23;;;;;;;3.63;2.30;;;;;;;20.64;65.18;95994.63;4913785;28;20191;-79
2023/07/25 07:31:49;;;;;;;2.35;1.90;;;;;;;20.62;65.55;95993.44;4945307;28;20282;-78
2023/07/25 07:34:16;;;;;;;3.42;2.30;;;;;;;20.53;66.69;95988.28;4937397;28;20725;-79
2023/07/25 07:36:42;;;;;;;2.63;2.40;;;;;;;20.39;66.45;95991.28;4940140;28;20282;-78
2023/07/25 07:39:07;;;;;;;2.55;2.03;;;;;;;20.33;66.61;95993.41;4942972;28;20343;-80
2023/07/25 07:41:34;;;;;;;2.83;2.40;;;;;;;20.34;66.69;95992.31;4928968;28;20281;-79
2023/07/25 07:44:00;;;;;;;2.42;2.20;;;;;;;20.30;67.31;95993.31;4911976;28;20185;-79
2023/07/25 07:46:29;;;;;;;3.15;2.63;;;;;;;20.34;67.74;95989.69;4922490;28;20303;-79
2023/07/25 07:48:56;;;;;;;3.10;2.20;;;;;;;20.13;67.27;95975.88;4939077;28;20204;-79
2023/07/25 07:51:22;;;;;;;2.30;2.10;;;;;;;20.21;68.36;95986.31;4926015;28;20202;-79
2023/07/25 07:53:47;;;;;;;3.03;2.22;;;;;;;20.25;67.87;95996.97;4922655;28;20268;-79
2023/07/25 07:56:12;;;;;;;2.53;2.00;;;;;;;20.12;67.53;96001.53;4932216;28;20365;-78
2023/07/25 07:58:38;;;;;;;3.22;2.90;;;;;;;20.00;67.89;96004.22;4926852;28;20346;-78
2023/07/25 08:01:03;;;;;;;3.08;2.28;;;;;;;20.13;67.46;96002.28;4928578;28;20210;-78
2023/07/25 08:03:29;;;;;;;3.30;1.90;;;;;;;20.06;67.83;96002.09;4943134;28;20158;-80
2023/07/25 08:05:57;;;;;;;2.85;2.58;;;;;;;20.24;68.67;96003.38;4929349;28;20208;-77
2023/07/25 08:08:23;;;;;;;2.85;2.10;;;;;;;20.37;68.07;95996.94;4928096;28;20282;-79
2023/07/25 08:10:48;;;;;;;3.35;2.42;;;;;;;20.44;68.63;95998.22;4924085;28;20252;-78
2023/07/25 08:13:14;;;;;;;2.58;2.33;;;;;;;20.62;68.67;96002.16;4910286;28;20272;-79
2023/07/25 08:15:39;;;;;;;3.63;2.80;;;;;;;21.19;67.48;95997.50;4914489;28;20259;-79
2023/07/25 08:18:04;;;;;;;2.92;2.65;;;;;;;21.35;67.96;96010.72;4911527;28;20110;-81
2023/07/25 08:20:30;;;;;;;3.90;3.10;;;;;;;21.47;66.57;96008.03;4935915;28;20251;-79
2023/07/25 08:22:55;;;;;;;2.88;2.20;;;;;;;21.44;64.33;96026.47;4909780;28;20267;-81
2023/07/25 08:25:21;;;;;;;2.97;2.70;;;;;;;21.17;65.09;96030.75;4904934;28;20197;-81
2023/07/25 08:27:46;;;;;;;1.45;1.23;;;;;;;20.95;63.88;96035.47;4923139;28;20201;-81
2023/07/25 08:30:12;;;;;;;2.00;0.98;;;;;;;20.55;63.46;96049.53;4923353;28;20275;-79
2023/07/25 08:32:37;;;;;;;4.35;1.45;;;;;;;20.24;62.81;96058.88;4909642;28;20246;-79
2023/07/25 08:35:03;;;;;;;1.23;0.45;;;;;;;19.72;64.99;96065.63;4906679;28;20399;-78
2023/07/25 08:37:28;;;;;;;0.47;0.28;;;;;;;19.51;64.61;96078.16;4912633;28;20165;-78
2023/07/25 08:39:54;;;;;;;0.50;0.38;;;;;;;19.42;65.32;96080.91;4938943;28;20635;-78
2023/07/25 08:42:20;;;;;;;0.60;0.60;;;;;;;19.38;66.20;96080.00;4919864;28;20208;-79
2023/07/25 08:44:47;;;;;;;0.40;0.30;;;;;;;19.23;65.72;96095.38;4923108;28;20621;-78
2023/07/25 08:47:17;;;;;;;0.43;0.30;;;;;;;19.05;65.70;96094.00;4938484;28;20616;-78
2023/07/25 08:49:46;;;;;;;0.50;0.40;;;;;;;18.87;67.15;96088.91;4925481;28;20186;-78
2023/07/25 08:52:12;;;;;;;0.60;0.30;;;;;;;18.62;67.61;96081.97;4906331;28;20652;-78
2023/07/25 08:54:37;;;;;;;0.77;0.30;;;;;;;18.53;68.47;96089.94;4927779;28;20237;-79
2023/07/25 08:57:04;;;;;;;0.55;0.35;;;;;;;18.47;69.07;96097.28;4910377;28;20274;-79
2023/07/25 08:59:30;;;;;;;0.60;0.40;;;;;;;18.53;68.40;96098.63;4939961;28;20519;-79
2023/07/25 09:01:56;;;;;;;0.50;0.40;;;;;;;18.61;68.17;96101.50;4909751;28;20138;-78
2023/07/25 09:04:23;;;;;;;0.55;0.55;;;;;;;18.62;67.94;96105.69;4926198;28;20230;-79
2023/07/25 09:06:49;;;;;;;0.70;0.47;;;;;;;18.64;68.13;96114.03;4940090;28;20102;-78
2023/07/25 09:09:14;;;;;;;1.25;0.47;;;;;;;18.72;67.75;96115.84;4911359;28;20156;-80
2023/07/25 09:11:40;;;;;;;0.93;0.57;;;;;;;18.75;67.68;96112.56;4946524;28;20180;-80
2023/07/25 09:14:06;;;;;;;2.08;0.60;;;;;;;18.66;68.06;96106.56;4925017;28;20374;-80
2023/07/25 09:16:32;;;;;;;1.42;0.60;;;;;;;18.66;68.22;96106.56;4908880;28;20357;-79
2023/07/25 09:18:57;;;;;;;1.58;0.80;;;;;;;18.66;68.43;96111.84;4936689;28;20390;-80
2023/07/25 09:21:23;;;;;;;1.02;0.90;;;;;;;18.60;68.11;96116.56;4907625;28;20255;-80
2023/07/25 09:23:56;;;;;;;1.20;0.90;;;;;;;18.55;67.49;96113.34;4936382;28;20393;-80
2023/07/25 09:26:23;;;;;;;1.83;0.90;;;;;;;18.57;67.37;96133.00;4925035;28;20165;-80
2023/07/25 09:28:50;;;;;;;0.95;0.60;;;;;;;18.61;67.61;96141.84;4924640;28;20344;-79
2023/07/25 09:31:16;;;;;;;1.58;0.70;;;;;;;18.55;68.19;96139.72;4924191;28;20211;-80
2023/07/25 09:33:46;;;;;;;0.98;0.73;;;;;;;18.51;67.71;96132.44;4909674;28;20216;-80
2023/07/25 09:36:11;;;;;;;0.90;0.75;;;;;;;18.43;68.39;96125.34;4935238;28;20338;-79
2023/07/25 09:38:46;;;;;;;1.30;0.93;;;;;;;18.68;68.13;96130.78;4907474;28;20521;-80
2023/07/25 09:41:12;;;;;;;2.33;1.23;;;;;;;18.70;68.70;96116.16;4929207;28;20345;-80
2023/07/25 09:43:38;;;;;;;1.15;1.05;;;;;;;18.79;69.13;96118.72;4924503;28;20063;-81
2023/07/25 09:46:04;;;;;;;1.02;0.93;;;;;;;18.85;68.42;96111.41;4939134;28;20250;-79
2023/07/25 09:48:31;;;;;;;1.50;0.90;;;;;;;18.99;68.80;96117.19;4938580;28;20359;-80
2023/07/25 09:50:58;;;;;;;1.75;1.17;;;;;;;19.25;67.21;96124.84;4909048;28;20083;-80
2023/07/25 09:53:23;;;;;;;1.33;1.00;;;;;;;19.44;67.58;96128.88;4910531;28;20186;-80
2023/07/25 09:55:48;;;;;;;1.13;1.00;;;;;;;19.56;66.92;96130.75;4941586;28;20215;-79
2023/07/25 09:58:14;;;;;;;1.77;1.10;;;;;;;19.62;67.32;96127.56;4940743;28;20382;-80
2023/07/25 10:00:40;;;;;;;1.52;1.00;;;;;;;19.72;65.67;96130.88;4940888;28;20546;-80
2023/07/25 10:03:09;;;;;;;1.35;1.10;;;;;;;19.90;65.79;96132.25;4925310;28;20212;-81
2023/07/25 10:05:40;;;;;;;1.38;1.27;;;;;;;19.93;65.52;96130.78;4923693;28;20204;-80
2023/07/25 10:08:07;;;;;;;1.40;1.30;;;;;;;19.87;64.80;96129.50;4925078;28;20243;-80
2023/07/25 10:10:33;;;;;;;1.55;1.45;;;;;;;19.83;65.33;96132.78;4927362;28;20195;-80
2023/07/25 10:12:58;;;;;;;1.50;1.40;;;;;;;19.94;65.03;96122.53;4926254;28;20243;-80
2023/07/25 10:15:24;;;;;;;1.90;1.65;;;;;;;20.06;66.03;96126.28;4928007;28;20643;-80
2023/07/25 10:17:50;;;;;;;1.85;1.65;;;;;;;19.95;65.43;96120.69;4942422;28;20333;-81
2023/07/25 10:20:25;;;;;;;1.55;1.45;;;;;;;20.26;64.09;96132.56;4940495;28;20517;-79
2023/07/25 10:22:50;;;;;;;1.50;1.40;;;;;;;20.21;64.04;96133.56;4909237;28;20209;-80
2023/07/25 10:25:29;;;;;;;1.80;1.67;;;;;;;20.52;63.82;96134.81;4910708;28;20397;-79
2023/07/25 10:27:58;;;;;;;1.40;1.30;;;;;;;20.57;62.61;96145.16;4947087;28;20449;-79
2023/07/25 10:30:29;;;;;;;1.40;1.23;;;;;;;20.71;63.36;96142.94;4919417;28;20352;-81
2023/07/25 10:32:58;;;;;;;1.50;1.40;;;;;;;20.59;63.07;96145.59;4927359;28;20191;-80
2023/07/25 10:35:59;;;;;;;1.80;1.67;;;;;;;20.81;62.42;96143.59;4924944;28;20175;-80
2023/07/25 10:38:39;;;;;;;1.80;1.63;;;;;;;20.47;61.56;96151.69;4851283;28;20229;-79
2023/07/25 10:41:08;;;;;;;1.90;1.70;;;;;;;20.39;62.02;96153.34;4851382;28;20496;-81
2023/07/25 10:43:55;;;;;;;1.70;1.50;;;;;;;20.66;61.53;96159.06;4853243;28;20196;-81
2023/07/25 10:46:23;;;;;;;1.92;1.80;;;;;;;20.69;62.74;96163.69;4851787;28;20370;-81
2023/07/25 10:48:52;;;;;;;1.92;1.83;;;;;;;20.85;62.66;96162.97;4849987;28;20771;-81
2023/07/25 10:51:19;;;;;;;1.77;1.67;;;;;;;20.84;61.62;96161.44;4845003;28;20394;-81
2023/07/25 10:54:09;;;;;;;1.92;1.80;;;;;;;21.05;61.45;96161.25;4854264;28;20396;-80
2023/07/25 10:56:36;;;;;;;1.95;1.85;;;;;;;21.19;62.30;96160.88;4889220;28;20043;-79
2023/07/25 10:59:08;;;;;;;1.85;1.67;;;;;;;21.32;60.33;96154.41;4877389;28;20214;-80
2023/07/25 11:01:39;;;;;;;1.73;1.63;;;;;;;21.24;60.60;96150.03;4877758;28;20207;-79
2023/07/25 11:04:20;;;;;;;2.03;1.92;;;;;;;21.38;58.88;96158.34;4894043;28;20030;-80
2023/07/25 11:06:46;;;;;;;1.60;1.50;;;;;;;21.48;58.83;96157.88;4874893;28;20043;-80
2023/07/25 11:09:12;;;;;;;2.47;2.00;;;;;;;21.53;58.56;96151.56;4877368;28;20026;-81
2023/07/25 11:11:43;;;;;;;2.25;2.05;;;;;;;21.57;59.15;96157.72;4880585;28;20037;-80
2023/07/25 11:14:12;;;;;;;2.30;2.10;;;;;;;21.60;57.79;96153.63;4913517;28;20396;-80
2023/07/25 11:16:39;;;;;;;2.00;1.80;;;;;;;21.46;57.65;96151.34;4936323;28;20040;-80
2023/07/25 11:19:04;;;;;;;1.60;1.50;;;;;;;21.37;59.82;96156.81;4909914;28;20068;-80
2023/07/25 11:21:31;;;;;;;2.22;1.88;;;;;;;21.34;59.05;96138.94;4935892;28;20086;-80
2023/07/25 11:24:04;;;;;;;2.92;1.75;;;;;;;21.48;58.36;96160.53;4935051;28;20125;-81
2023/07/25 11:26:30;;;;;;;2.20;2.00;;;;;;;21.32;58.50;96168.41;4934550;28;20029;-80
2023/07/25 11:28:56;;;;;;;2.30;2.08;;;;;;;21.16;60.61;96164.19;4919843;28;20033;-80
2023/07/25 11:31:22;;;;;;;2.67;2.47;;;;;;;21.05;60.02;96166.56;4923202;28;20087;-79